Open Full Screen Window  High Contrast Mode
Wind Gusting 00 knots
06
August 29, 2014 12:12 PM EDT
Weather Information
Wind Direction
  110 °
Wind Speed
  06 kt (7 mph)
Wind Gust
  00 kt (0 mph)
Altimeter
30.17 in
Visibility
7 SM
Temperature
21° C
70° F
Dewpoint
11° C
52° F
Humidity
53%
1hr Rain Fall
00.00 in.
24hr Rain Fall
00.00 in.
Sky Condition
Missing
VFR

METAR KPOV 291612Z AUTO 11006KT 7SM 21/11 A3017 RMK AO2 T02110113

*Background is not an actual portrayal of the airport.
Missing Cloud Data